createdAt,value
2019-05-06T03:36:02.906Z,5.50
2019-05-06T04:14:07.157Z,6.10
2019-05-06T04:19:18.106Z,5.70
2019-05-06T04:21:53.989Z,6.25
2019-05-06T04:24:33.818Z,5.20
2019-05-06T04:27:43.050Z,5.15
2019-05-06T04:30:14.916Z,5.70
2019-05-06T04:32:46.345Z,5.67
2019-05-06T04:35:17.599Z,5.20
2019-05-06T04:37:48.856Z,6.40
2019-05-06T04:40:20.178Z,6.12
2019-05-06T04:42:52.821Z,6.03
2019-05-06T04:45:24.358Z,6.17
2019-05-06T04:47:55.806Z,5.50
2019-05-06T04:50:27.173Z,5.90
2019-05-06T04:55:37.063Z,5.53
2019-05-06T04:58:08.236Z,5.53
2019-05-06T05:00:44.119Z,5.85
2019-05-06T05:03:15.223Z,5.87
2019-05-06T05:05:46.581Z,4.72
2019-05-06T05:08:17.868Z,5.72
2019-05-06T05:11:03.572Z,5.37
2019-05-06T05:13:36.747Z,5.85
2019-05-06T05:16:27.854Z,6.05
2019-05-06T05:19:02.642Z,6.47
2019-05-06T05:21:33.906Z,7.28
2019-05-06T05:24:05.199Z,6.87
2019-05-06T05:27:03.210Z,7.70
2019-05-06T05:33:17.326Z,8.95
2019-05-06T05:35:52.536Z,8.78
2019-05-06T05:38:48.440Z,7.72
2019-05-06T05:44:25.974Z,7.10
2019-05-06T05:47:03.403Z,7.08
2019-05-06T05:49:42.502Z,9.68
2019-05-06T05:52:18.980Z,7.62
2019-05-06T05:54:55.515Z,6.42
2019-05-06T05:57:26.204Z,6.53
2019-05-06T05:59:57.899Z,7.35
2019-05-06T06:05:38.915Z,5.80
2019-05-06T06:08:26.798Z,7.08
2019-05-06T06:11:12.666Z,6.58
2019-05-06T06:21:18.745Z,6.85
2019-05-06T06:28:11.855Z,5.87
2019-05-06T06:34:22.173Z,9.10
2019-05-06T06:37:18.007Z,13.62
2019-05-06T06:43:59.708Z,14.00
2019-05-06T06:50:25.969Z,13.10
2019-05-06T06:53:29.646Z,10.53
2019-05-06T06:59:28.578Z,5.97
2019-05-06T07:02:17.108Z,5.37
2019-05-06T07:14:29.521Z,6.45
2019-05-06T07:24:03.652Z,3.65
2019-05-06T07:29:26.786Z,5.00
2019-05-06T07:30:03.023Z,2.98
2019-05-06T07:36:24.037Z,5.20
2019-05-06T07:49:12.616Z,3.30
2019-05-06T07:51:44.135Z,2.98
2019-05-06T07:57:12.522Z,4.00
2019-05-06T07:59:45.805Z,5.30
2019-05-06T08:02:17.292Z,2.90
2019-05-06T08:04:50.249Z,4.17
2019-05-06T08:07:38.029Z,4.20
2019-05-06T08:10:26.790Z,3.20
2019-05-06T08:13:10.304Z,3.10
2019-05-06T08:19:05.000Z,2.60
2019-05-06T08:21:49.383Z,2.70
2019-05-06T08:28:15.456Z,2.85
2019-05-06T08:34:27.605Z,3.22
2019-05-06T08:37:13.349Z,3.72
2019-05-06T08:39:49.156Z,3.75
2019-05-06T08:45:49.065Z,2.47
2019-05-06T08:50:58.360Z,3.30
2019-05-06T08:53:43.642Z,3.33
2019-05-06T08:56:26.853Z,3.47
2019-05-06T08:59:14.962Z,2.65
2019-05-06T09:02:07.695Z,2.17
2019-05-06T09:07:59.663Z,2.15
2019-05-06T09:10:33.178Z,2.27
2019-05-06T09:13:04.496Z,2.90
2019-05-06T09:16:02.472Z,2.70
2019-05-06T09:18:37.854Z,3.15
2019-05-06T09:21:28.033Z,3.58
2019-05-06T09:24:02.932Z,2.17
2019-05-06T09:26:45.381Z,2.10
2019-05-06T09:29:33.983Z,1.95
2019-05-06T09:32:42.787Z,5.37
2019-05-06T09:35:19.297Z,4.05
2019-05-06T09:37:53.286Z,3.85
2019-05-06T09:40:27.126Z,4.50
2019-05-06T09:42:58.627Z,3.60
2019-05-06T09:45:45.721Z,3.37
2019-05-06T09:48:54.304Z,4.15
2019-05-06T09:51:28.250Z,4.15
2019-05-06T09:54:32.187Z,5.70
2019-05-06T10:03:29.424Z,4.30
2019-05-06T10:06:02.766Z,4.10
2019-05-06T10:09:04.922Z,3.47
2019-05-06T10:15:03.227Z,3.00
2019-05-06T10:55:03.499Z,2.10
2019-05-06T10:57:56.168Z,2.10
2019-05-06T11:08:09.792Z,3.08
2019-05-06T12:09:16.983Z,3.10
2019-05-06T12:12:09.002Z,3.20
2019-05-06T12:15:33.507Z,3.80
2019-05-06T12:31:33.361Z,2.00
2019-05-06T12:40:47.019Z,2.02
2019-05-06T12:43:58.304Z,2.02
2019-05-06T12:54:34.127Z,2.33
2019-05-06T13:11:43.251Z,1.87
2019-05-06T13:14:14.832Z,2.20
2019-05-06T13:16:47.294Z,3.22
2019-05-06T13:22:03.601Z,3.47
2019-05-06T13:24:40.901Z,2.75
2019-05-06T13:27:27.387Z,2.90
2019-05-06T13:30:13.607Z,2.60
2019-05-06T13:32:53.267Z,2.58
2019-05-06T13:35:32.559Z,3.90
2019-05-06T13:38:05.276Z,2.98
2019-05-06T13:44:06.005Z,1.57
2019-05-06T13:46:45.636Z,2.22
2019-05-06T13:50:06.808Z,2.90
2019-05-06T13:52:17.181Z,4.72
2019-05-06T13:55:44.104Z,3.17
2019-05-06T13:57:31.928Z,5.42
2019-05-06T14:00:45.298Z,6.83
2019-05-06T14:03:19.322Z,2.75
2019-05-06T14:05:53.882Z,2.42
2019-05-06T14:08:25.387Z,1.95
2019-05-06T14:11:00.087Z,11.70
2019-05-06T14:13:32.727Z,13.85
2019-05-06T14:16:05.476Z,4.90
2019-05-06T14:21:09.060Z,3.83
2019-05-06T14:23:47.482Z,2.60
2019-05-06T14:26:29.726Z,2.37
2019-05-06T14:29:06.516Z,2.60
2019-05-06T14:31:52.316Z,3.62
2019-05-06T14:34:23.166Z,4.05
2019-05-06T14:37:09.181Z,3.67
2019-05-06T14:40:04.868Z,2.40
2019-05-06T14:46:03.276Z,3.08
2019-05-06T14:48:43.620Z,2.87
2019-05-06T15:04:58.301Z,2.62
2019-05-06T15:32:53.058Z,2.52
2019-05-06T15:35:42.239Z,2.15
2019-05-06T15:38:15.122Z,1.90
2019-05-06T15:40:46.365Z,1.45
2019-05-06T15:43:17.681Z,1.90
2019-05-06T15:48:22.216Z,3.00
2019-05-06T15:50:55.293Z,3.30
2019-05-06T15:53:26.664Z,2.35
2019-05-06T15:56:01.432Z,3.25
2019-05-06T15:58:52.795Z,2.12
2019-05-06T16:01:24.016Z,2.20
2019-05-06T16:06:26.119Z,2.65
2019-05-06T16:08:58.140Z,2.00
2019-05-06T16:11:29.441Z,2.20
2019-05-06T16:16:33.405Z,1.90
2019-05-06T16:19:04.968Z,2.20
2019-05-06T16:21:36.227Z,2.15
2019-05-06T16:26:39.671Z,2.75
2019-05-06T16:29:13.049Z,2.45
2019-05-06T16:31:44.195Z,5.47
2019-05-06T16:34:15.999Z,3.72
2019-05-06T16:36:47.413Z,3.90
2019-05-06T16:39:18.907Z,2.90
2019-05-06T16:41:52.222Z,3.72
2019-05-06T16:44:23.848Z,2.85
2019-05-06T16:47:03.164Z,3.67
2019-05-06T16:55:49.923Z,7.37
2019-05-06T16:58:28.657Z,5.50
2019-05-06T17:01:00.184Z,8.53
2019-05-06T17:03:33.231Z,7.05
2019-05-06T17:06:18.248Z,2.70
2019-05-06T17:08:49.507Z,2.85
2019-05-06T17:11:28.024Z,3.08
2019-05-06T17:14:03.246Z,2.67
2019-05-06T17:16:35.399Z,2.87
2019-05-06T17:19:06.784Z,2.72
2019-05-06T17:21:37.993Z,2.60
2019-05-06T17:24:09.345Z,2.50
2019-05-06T17:26:42.634Z,2.85
2019-05-06T17:29:22.730Z,3.02
2019-05-06T17:31:58.933Z,3.10
2019-05-06T17:34:33.676Z,2.98
2019-05-06T17:37:12.370Z,2.90
2019-05-06T17:39:43.257Z,3.67
2019-05-06T17:42:14.895Z,2.85
2019-05-06T17:44:49.527Z,3.25
2019-05-06T17:47:22.956Z,3.33
2019-05-06T17:49:54.652Z,8.95
2019-05-06T17:54:58.444Z,26.25
2019-05-06T17:57:30.003Z,15.23
2019-05-06T18:00:03.246Z,3.98
2019-05-06T18:02:36.365Z,3.83
2019-05-06T18:05:07.827Z,3.60
2019-05-06T18:07:39.263Z,3.27
2019-05-06T18:10:12.000Z,3.62
2019-05-06T18:12:43.771Z,3.25
2019-05-06T18:17:45.893Z,4.33
2019-05-06T18:22:48.022Z,4.05
2019-05-06T18:25:19.515Z,4.05
2019-05-06T18:27:52.684Z,8.98
2019-05-06T18:30:33.072Z,6.65
2019-05-06T18:32:57.568Z,5.03
2019-05-06T18:35:31.125Z,6.42
2019-05-06T18:40:34.452Z,4.42
2019-05-06T18:43:07.544Z,6.45
2019-05-06T18:45:39.074Z,5.22
2019-05-06T18:48:10.666Z,5.25
2019-05-06T18:50:42.524Z,4.97
2019-05-06T18:53:14.748Z,5.65
2019-05-06T18:55:46.385Z,6.40
2019-05-06T18:58:18.022Z,5.83
2019-05-06T19:03:19.943Z,7.03
2019-05-06T19:08:32.494Z,8.60
2019-05-06T19:11:06.610Z,8.88
2019-05-06T19:13:38.129Z,9.78
2019-05-06T19:16:09.581Z,9.95
2019-05-06T19:18:42.641Z,9.00
2019-05-06T19:21:14.210Z,10.88
2019-05-06T19:26:16.088Z,10.43
2019-05-06T19:28:48.595Z,10.65
2019-05-06T19:31:20.109Z,11.20
2019-05-06T19:36:23.711Z,11.85
2019-05-06T19:41:27.493Z,11.20
2019-05-06T19:43:58.989Z,11.33
2019-05-06T19:49:01.969Z,12.70
2019-05-06T19:51:33.573Z,12.05
2019-05-06T19:56:35.524Z,11.40
2019-05-06T20:01:37.466Z,10.98
2019-05-06T20:04:08.816Z,11.20
2019-05-06T20:06:56.721Z,11.90
2019-05-06T20:09:29.674Z,11.10
2019-05-06T20:12:05.783Z,10.65
2019-05-06T20:14:38.410Z,11.12
2019-05-06T20:17:09.880Z,10.85
2019-05-06T20:19:42.576Z,10.78
2019-05-06T20:22:14.304Z,12.03
2019-05-06T20:24:45.653Z,11.25
2019-05-06T20:27:17.047Z,11.83
2019-05-06T20:29:48.510Z,11.63
2019-05-06T20:34:50.422Z,12.65
2019-05-06T20:39:53.648Z,13.28
2019-05-06T20:44:55.456Z,14.23
2019-05-06T20:47:26.893Z,13.25
2019-05-06T20:49:58.312Z,15.20
2019-05-06T20:52:30.548Z,15.30
2019-05-06T20:55:03.023Z,16.15
2019-05-06T20:57:35.600Z,16.95
2019-05-06T21:00:08.534Z,17.07
2019-05-06T21:02:42.590Z,17.00
2019-05-06T21:05:14.067Z,17.02
2019-05-06T21:07:45.630Z,18.12
2019-05-06T21:10:16.979Z,19.85
2019-05-06T21:15:18.909Z,19.55
2019-05-06T21:20:26.163Z,19.75
2019-05-06T21:22:57.626Z,19.10
2019-05-06T21:25:29.144Z,18.35
2019-05-06T21:28:02.961Z,18.50
2019-05-06T21:30:34.601Z,17.75
2019-05-06T21:33:05.984Z,16.62
2019-05-06T21:38:07.907Z,11.50
2019-05-06T21:40:39.242Z,13.75
2019-05-06T21:43:12.808Z,14.35
2019-05-06T21:45:44.300Z,15.65
2019-05-06T21:48:18.807Z,17.02
2019-05-06T21:50:52.278Z,14.07
2019-05-06T21:53:23.950Z,16.10
2019-05-06T21:55:55.322Z,15.13
2019-05-06T22:01:08.244Z,16.37
2019-05-06T22:03:43.350Z,16.60
2019-05-06T22:06:14.384Z,16.52
2019-05-06T22:08:45.737Z,17.42
2019-05-06T22:11:17.138Z,16.82
2019-05-06T22:14:00.582Z,17.70
2019-05-06T22:16:23.002Z,18.75
2019-05-06T22:18:54.490Z,20.40
2019-05-06T22:21:26.079Z,21.65
2019-05-06T22:24:04.333Z,22.95
2019-05-06T22:26:35.006Z,24.85
2019-05-06T22:29:06.368Z,24.50
2019-05-06T22:34:08.292Z,20.60
2019-05-06T22:36:39.614Z,16.87
2019-05-06T22:39:12.007Z,22.10
2019-05-06T22:41:44.156Z,24.32
2019-05-06T22:44:17.107Z,25.17
2019-05-06T22:46:48.698Z,24.55
2019-05-06T22:49:22.461Z,22.55
2019-05-06T22:51:54.284Z,24.15
2019-05-06T22:54:25.664Z,20.10
2019-05-06T22:56:58.221Z,21.77
2019-05-06T22:59:29.651Z,21.68
2019-05-06T23:02:13.136Z,20.75
2019-05-06T23:04:48.976Z,19.00
2019-05-06T23:07:22.427Z,20.57
2019-05-06T23:09:53.420Z,21.65
2019-05-06T23:12:24.815Z,20.40
2019-05-06T23:14:56.140Z,16.17
2019-05-06T23:17:27.594Z,17.23
2019-05-06T23:19:59.004Z,17.45
2019-05-06T23:25:02.500Z,16.62
2019-05-06T23:27:33.930Z,17.20
2019-05-06T23:32:37.567Z,16.45
2019-05-06T23:35:08.897Z,13.98
2019-05-06T23:38:17.698Z,13.45
2019-05-06T23:41:25.604Z,13.40
2019-05-06T23:44:45.013Z,13.35
2019-05-06T23:47:42.843Z,11.85
2019-05-06T23:50:50.725Z,12.37
2019-05-06T23:53:58.528Z,11.65
2019-05-06T23:56:43.268Z,10.85
2019-05-06T23:59:15.971Z,11.88
